Portada
METAR-TAF:

METAR-TAF

Aeropuertos :

Plataforma petrolífera

Troll A, Noruega

latitud: 60-38-42N, longitud: 3-43-29E, altitud: 20 m

Observación

El informe se hizo hace 35 minutos, a las 14:20 UTC
Viento 2 kt del este
Temperatura 15°C
Humedad 100%
Presión 1007 hPa
Visibilidad 10 km o más

METAR: ENQA 141420Z AUTO 10002KT 9999 FEW001/// OVC100/// 15/15 Q1007 W///S4

Hora: 16:55 (14:55 UTC)


TAF: falta

Observaciones y pronósticos meteorológicos de más de 4000 aeropuertos (mensajes METAR y TAF).

Los puntos amarillos y rojos representan las estaciones disponibles.

Ponga el ratón en el punto deseado para ver el nombre de la estación.

Haga clic para ver las observaciones y los pronósticos meteorológicos.

Para cambiar el mapa : haga clic en los botones verdes con una cruz de color negro para hacer un zoom, en el botón verde con un guión para alejar o en las flechas verdes para mapas adyacentes.


METAR-TAF: